createdAt,value
2022-11-04T00:01:05.822Z,96.23
2022-11-04T00:06:08.908Z,96.11
2022-11-04T00:11:30.349Z,96.23
2022-11-04T00:16:51.614Z,96.41
2022-11-04T00:22:14.577Z,96.65
2022-11-04T00:27:38.988Z,96.75
2022-11-04T00:33:00.418Z,96.77
2022-11-04T00:38:04.371Z,97.05
2022-11-04T00:43:07.252Z,97.13
2022-11-04T00:48:10.785Z,97.25
2022-11-04T00:53:13.857Z,97.26
2022-11-04T00:58:16.574Z,97.34
2022-11-04T01:03:19.369Z,97.12
2022-11-04T01:08:22.124Z,96.75
2022-11-04T01:13:24.822Z,96.35
2022-11-04T01:18:29.009Z,96.41
2022-11-04T01:23:32.582Z,95.94
2022-11-04T01:28:35.939Z,95.65
2022-11-04T01:33:39.881Z,95.38
2022-11-04T01:38:42.915Z,94.75
2022-11-04T01:44:24.407Z,94.18
2022-11-04T01:49:40.654Z,93.68
2022-11-04T01:54:49.102Z,93.59
2022-11-04T01:59:52.727Z,92.89
2022-11-04T02:04:55.855Z,92.44
2022-11-04T02:09:58.678Z,91.57
2022-11-04T02:15:01.520Z,91.26
2022-11-04T02:20:24.195Z,90.91
2022-11-04T02:26:06.672Z,90.38
2022-11-04T02:31:35.697Z,90.19
2022-11-04T02:36:57.270Z,89.73
2022-11-04T02:42:13.991Z,89.46
2022-11-04T02:47:24.304Z,89.27
2022-11-04T02:52:56.481Z,88.72
2022-11-04T02:58:02.816Z,88.49
2022-11-04T03:03:17.590Z,88.20
2022-11-04T03:08:43.672Z,87.94
2022-11-04T03:13:49.874Z,87.65
2022-11-04T03:19:04.013Z,87.22
2022-11-04T03:24:06.892Z,87.01
2022-11-04T03:29:31.062Z,86.78
2022-11-04T03:34:33.876Z,86.95
2022-11-04T03:39:37.105Z,86.89
2022-11-04T03:44:40.007Z,86.87
2022-11-04T03:49:44.654Z,86.62
2022-11-04T03:54:47.717Z,86.55
2022-11-04T04:00:04.020Z,86.13
2022-11-04T04:05:19.764Z,86.22
2022-11-04T04:10:39.406Z,85.99
2022-11-04T04:16:01.238Z,86.06
2022-11-04T04:21:08.629Z,85.97
2022-11-04T04:26:33.067Z,85.90
2022-11-04T04:31:50.910Z,85.75
2022-11-04T04:37:04.035Z,85.78
2022-11-04T04:42:27.137Z,86.66
2022-11-04T04:47:43.506Z,87.63
2022-11-04T04:52:49.758Z,87.26
2022-11-04T04:57:52.532Z,86.60
2022-11-04T05:02:55.740Z,85.59
2022-11-04T05:08:06.865Z,85.69
2022-11-04T05:13:30.144Z,85.38
2022-11-04T05:18:33.135Z,84.95
2022-11-04T05:23:36.148Z,84.44
2022-11-04T05:28:39.032Z,84.66
2022-11-04T05:33:41.995Z,84.16
2022-11-04T05:38:50.295Z,84.21
2022-11-04T05:43:55.076Z,84.91
2022-11-04T05:48:57.959Z,84.22
2022-11-04T05:54:01.870Z,84.28
2022-11-04T05:59:04.742Z,84.11
2022-11-04T06:04:07.867Z,83.87
2022-11-04T06:09:11.156Z,83.84
2022-11-04T06:14:18.506Z,83.49
2022-11-04T06:19:21.751Z,83.34
2022-11-04T06:24:24.566Z,83.18
2022-11-04T06:29:27.333Z,82.68
2022-11-04T06:34:30.195Z,82.98
2022-11-04T06:39:33.045Z,83.19
2022-11-04T06:44:37.199Z,83.10
2022-11-04T06:49:40.034Z,82.42
2022-11-04T06:54:43.118Z,82.46
2022-11-04T06:59:46.034Z,82.60
2022-11-04T07:04:48.900Z,82.30
2022-11-04T07:09:51.802Z,81.92
2022-11-04T07:14:56.541Z,81.72
2022-11-04T07:19:59.329Z,81.08
2022-11-04T07:25:02.127Z,81.28
2022-11-04T07:30:05.312Z,81.18
2022-11-04T07:35:08.578Z,80.79
2022-11-04T07:40:12.520Z,80.56
2022-11-04T07:45:15.672Z,80.66
2022-11-04T07:50:18.720Z,80.37
2022-11-04T07:55:21.770Z,80.27
2022-11-04T08:00:24.714Z,80.11
2022-11-04T08:05:27.749Z,79.71
2022-11-04T08:10:30.687Z,80.03
2022-11-04T08:15:39.662Z,80.26
2022-11-04T08:20:50.332Z,80.99
2022-11-04T08:25:53.127Z,81.00
2022-11-04T08:30:59.458Z,80.99
2022-11-04T08:36:09.593Z,80.63
2022-11-04T08:41:14.861Z,80.47
2022-11-04T08:46:18.661Z,79.89
2022-11-04T08:51:25.545Z,80.19
2022-11-04T08:56:31.110Z,79.61
2022-11-04T09:01:36.396Z,79.72
2022-11-04T09:06:42.567Z,79.84
2022-11-04T09:11:46.038Z,79.67
2022-11-04T09:16:48.904Z,79.56
2022-11-04T09:21:51.837Z,79.56
2022-11-04T09:26:54.879Z,79.71
2022-11-04T09:31:57.710Z,79.57
2022-11-04T09:37:01.103Z,79.26
2022-11-04T09:42:11.480Z,78.95
2022-11-04T09:47:21.549Z,78.59
2022-11-04T09:52:31.337Z,77.81
2022-11-04T09:57:34.245Z,77.88
2022-11-04T10:03:24.949Z,77.15
2022-11-04T10:08:40.472Z,76.51
2022-11-04T10:14:38.640Z,76.12
2022-11-04T10:20:21.832Z,76.50
2022-11-04T10:25:35.023Z,76.07
2022-11-04T10:30:41.333Z,75.12
2022-11-04T10:35:52.277Z,75.00
2022-11-04T10:40:57.114Z,74.88
2022-11-04T10:46:19.634Z,74.90
2022-11-04T10:51:24.360Z,74.32
2022-11-04T10:56:40.676Z,73.53
2022-11-04T11:01:51.310Z,73.26
2022-11-04T11:06:57.294Z,72.39
2022-11-04T11:12:52.429Z,72.68
2022-11-04T11:17:47.649Z,73.53
2022-11-04T11:22:54.440Z,73.33
2022-11-04T11:28:10.025Z,73.67
2022-11-04T11:33:28.324Z,73.89
2022-11-04T11:38:34.265Z,73.82
2022-11-04T11:43:44.535Z,74.44
2022-11-04T11:48:53.059Z,73.68
2022-11-04T11:54:16.931Z,73.47
2022-11-04T12:11:14.457Z,71.35
2022-11-04T12:16:30.236Z,70.93
2022-11-04T12:21:39.901Z,70.37
2022-11-04T12:27:00.707Z,69.98
2022-11-04T12:32:24.895Z,70.24
2022-11-04T12:37:41.546Z,70.88
2022-11-04T12:43:07.931Z,70.53
2022-11-04T12:48:21.123Z,70.61
2022-11-04T12:53:38.420Z,69.81
2022-11-04T12:59:12.395Z,69.73
2022-11-04T13:04:19.460Z,69.62
2022-11-04T13:09:37.070Z,68.90
2022-11-04T13:14:47.644Z,68.54
2022-11-04T13:19:58.859Z,68.88
2022-11-04T13:25:03.606Z,68.63
2022-11-04T13:30:44.909Z,68.51
2022-11-04T13:35:53.966Z,69.23
2022-11-04T13:41:28.132Z,69.72
2022-11-04T13:46:33.922Z,69.65
2022-11-04T13:51:41.801Z,69.14
2022-11-04T13:56:44.678Z,69.83
2022-11-04T14:01:47.745Z,69.91
2022-11-04T14:06:50.635Z,69.96
2022-11-04T14:12:15.005Z,70.56
2022-11-04T14:17:46.670Z,70.56
2022-11-04T14:22:56.722Z,70.83
2022-11-04T14:28:18.583Z,71.04
2022-11-04T14:33:30.187Z,71.35
2022-11-04T14:38:36.315Z,71.59
2022-11-04T14:43:43.409Z,71.91
2022-11-04T14:48:52.262Z,72.15
2022-11-04T14:54:21.724Z,72.41
2022-11-04T14:59:27.489Z,72.67
2022-11-04T15:04:32.586Z,72.76
2022-11-04T15:09:47.374Z,72.95
2022-11-04T15:14:50.406Z,73.49
2022-11-04T15:19:56.284Z,73.50
2022-11-04T15:25:06.069Z,74.04
2022-11-04T15:30:21.048Z,74.44
2022-11-04T15:35:25.424Z,75.04
2022-11-04T15:40:30.694Z,75.68
2022-11-04T15:45:45.549Z,76.04
2022-11-04T15:51:06.546Z,76.33
2022-11-04T15:56:09.800Z,76.67
2022-11-04T16:01:17.616Z,77.10
2022-11-04T16:06:42.630Z,77.28
2022-11-04T16:12:05.837Z,77.73
2022-11-04T16:17:10.837Z,78.03
2022-11-04T16:22:20.332Z,78.26
2022-11-04T16:27:24.450Z,78.49
2022-11-04T16:32:30.165Z,78.78
2022-11-04T16:37:32.906Z,78.95
2022-11-04T16:42:36.053Z,79.13
2022-11-04T16:47:40.581Z,79.31
2022-11-04T16:52:44.571Z,79.41
2022-11-04T16:57:54.816Z,79.71
2022-11-04T17:02:57.630Z,79.76
2022-11-04T17:08:05.212Z,79.82
2022-11-04T17:13:09.348Z,79.96
2022-11-04T17:18:18.861Z,80.29
2022-11-04T17:23:22.906Z,80.20
2022-11-04T17:28:26.973Z,80.26
2022-11-04T17:33:29.948Z,80.48
2022-11-04T17:38:32.695Z,80.49
2022-11-04T17:43:54.205Z,80.72
2022-11-04T17:48:57.095Z,80.56
2022-11-04T17:54:00.143Z,80.76
2022-11-04T17:59:04.225Z,80.81
2022-11-04T18:04:07.867Z,80.95
2022-11-04T18:09:12.092Z,81.02
2022-11-04T18:14:17.365Z,81.41
2022-11-04T18:19:22.341Z,81.13
2022-11-04T18:24:25.286Z,81.28
2022-11-04T18:29:28.131Z,81.08
2022-11-04T18:34:30.959Z,81.11
2022-11-04T18:39:33.786Z,81.02
2022-11-04T18:44:37.072Z,81.12
2022-11-04T18:49:39.922Z,81.18
2022-11-04T18:54:43.927Z,81.11
2022-11-04T18:59:47.767Z,81.43
2022-11-04T19:04:52.239Z,81.32
2022-11-04T19:09:56.389Z,81.47
2022-11-04T19:14:59.252Z,81.23
2022-11-04T19:20:08.494Z,81.22
2022-11-04T19:25:14.423Z,81.38
2022-11-04T19:30:18.400Z,81.37
2022-11-04T19:35:21.210Z,81.57
2022-11-04T19:40:23.979Z,81.72
2022-11-04T19:45:26.795Z,81.61
2022-11-04T19:50:29.699Z,81.97
2022-11-04T19:55:33.019Z,81.90
2022-11-04T20:00:35.843Z,81.73
2022-11-04T20:05:41.107Z,81.77
2022-11-04T20:10:45.547Z,82.10
2022-11-04T20:15:48.555Z,82.01
2022-11-04T20:20:51.363Z,82.18
2022-11-04T20:25:54.374Z,82.31
2022-11-04T20:30:57.140Z,82.56
2022-11-04T20:36:02.819Z,83.15
2022-11-04T20:41:11.381Z,83.44
2022-11-04T20:46:17.512Z,83.67
2022-11-04T20:51:23.522Z,84.37
2022-11-04T20:56:28.519Z,84.75
2022-11-04T21:01:37.316Z,85.17
2022-11-04T21:06:40.248Z,85.77
2022-11-04T21:11:43.425Z,85.97
2022-11-04T21:16:47.230Z,86.31
2022-11-04T21:21:50.199Z,86.33
2022-11-04T21:26:53.134Z,86.57
2022-11-04T21:31:56.140Z,86.53
2022-11-04T21:36:58.882Z,86.84
2022-11-04T21:42:01.795Z,87.18
2022-11-04T21:47:05.025Z,87.07
2022-11-04T21:52:07.771Z,87.15
2022-11-04T21:57:10.558Z,87.22
2022-11-04T22:02:13.653Z,87.56
2022-11-04T22:07:36.569Z,87.75
2022-11-04T22:12:39.325Z,88.42
2022-11-04T22:17:42.079Z,88.39
2022-11-04T22:22:44.839Z,88.62
2022-11-04T22:27:47.632Z,89.12
2022-11-04T22:32:51.861Z,89.42
2022-11-04T22:37:54.815Z,89.85
2022-11-04T22:42:57.612Z,89.92
2022-11-04T22:48:00.438Z,90.61
2022-11-04T22:53:03.263Z,90.57
2022-11-04T22:58:06.184Z,91.20
2022-11-04T23:03:09.519Z,91.32
2022-11-04T23:08:12.626Z,91.44
2022-11-04T23:13:34.965Z,91.59
2022-11-04T23:18:43.310Z,91.97
2022-11-04T23:24:04.673Z,92.11
2022-11-04T23:29:26.492Z,92.20
2022-11-04T23:34:48.298Z,92.47
2022-11-04T23:39:51.056Z,92.62
2022-11-04T23:45:14.374Z,92.43
2022-11-04T23:50:36.735Z,92.41
2022-11-04T23:55:58.313Z,92.46
